Time;durP1;ratioP1;P1;durP2;ratioP2;P2;SDS_P1;SDS_P2;PMS_P1;PMS_P2;Temp;Humidity;BMP_temperature;BMP_pressure;BME280_temperature;BME280_humidity;BME280_pressure;Samples;Min_cycle;Max_cycle;Signal;HPM_P1;HPM_P2
2023/06/01 00:01:51;;;;;;;;;7.00;6.00;;;;;23.42;31.32;101326.47;4982847;28;45531;-60
2023/06/01 00:04:17;;;;;;;;;5.25;5.00;;;;;23.39;31.49;101330.22;5009495;28;45349;-60
2023/06/01 00:06:43;;;;;;;;;7.75;7.75;;;;;23.34;31.48;101327.78;4982626;28;45389;-60
2023/06/01 00:09:08;;;;;;;;;6.75;6.75;;;;;23.33;31.83;101334.13;4981781;28;45250;-60
2023/06/01 00:11:33;;;;;;;;;6.00;6.00;;;;;23.30;31.86;101323.56;4983306;28;45194;-60
2023/06/01 00:13:59;;;;;;;;;8.75;7.50;;;;;23.26;31.52;101321.16;4982429;28;45422;-60
2023/06/01 00:16:25;;;;;;;;;8.50;7.75;;;;;23.22;31.43;101317.81;4981905;28;46101;-60
2023/06/01 00:18:56;;;;;;;;;6.00;6.00;;;;;23.20;31.58;101317.03;4982303;28;45301;-60
2023/06/01 00:21:22;;;;;;;;;7.75;6.50;;;;;23.18;31.45;101316.25;4982553;28;45388;-60
2023/06/01 00:23:47;;;;;;;;;12.75;6.50;;;;;23.10;31.92;101310.44;4982035;28;45261;-60
2023/06/01 00:26:13;;;;;;;;;8.25;6.00;;;;;23.10;31.98;101322.03;4982089;28;45972;-60
2023/06/01 00:28:38;;;;;;;;;6.75;6.00;;;;;23.09;31.86;101320.28;4982048;28;45317;-60
2023/06/01 00:31:04;;;;;;;;;11.00;7.00;;;;;23.07;32.14;101313.28;4982254;28;45421;-60
2023/06/01 00:33:29;;;;;;;;;12.25;8.00;;;;;23.03;32.03;101316.16;4982180;28;45210;-60
2023/06/01 00:35:55;;;;;;;;;9.25;8.50;;;;;22.99;32.09;101309.25;4982210;28;46276;-60
2023/06/01 00:38:20;;;;;;;;;7.00;7.00;;;;;22.95;32.04;101313.03;4970577;28;45890;-60
2023/06/01 00:40:49;;;;;;;;;8.00;7.00;;;;;22.93;31.83;101317.66;4982232;28;45207;-60
2023/06/01 00:43:15;;;;;;;;;9.00;7.00;;;;;22.91;32.13;101322.22;4981850;28;45393;-60
2023/06/01 00:45:41;;;;;;;;;12.25;9.00;;;;;22.87;32.29;101315.31;4981648;28;45756;-60
2023/06/01 00:48:06;;;;;;;;;7.75;7.75;;;;;22.87;32.07;101321.53;4981812;28;45369;-60
2023/06/01 00:50:32;;;;;;;;;8.00;7.00;;;;;22.85;32.03;101322.56;4997217;28;45455;-60
2023/06/01 00:53:00;;;;;;;;;9.25;8.00;;;;;22.83;32.45;101321.78;4981871;28;45615;-63
2023/06/01 00:55:27;;;;;;;;;6.50;6.50;;;;;22.80;32.22;101322.81;4981855;28;46144;-60
2023/06/01 00:57:54;;;;;;;;;8.00;7.25;;;;;22.78;32.55;101321.19;4996707;28;45450;-60
2023/06/01 01:00:22;;;;;;;;;7.75;6.75;;;;;22.76;32.46;101315.06;4981645;28;45425;-60
2023/06/01 01:02:48;;;;;;;;;9.50;9.00;;;;;22.72;32.27;101311.69;4971698;28;45231;-60
2023/06/01 01:05:15;;;;;;;;;8.50;8.00;;;;;22.69;32.40;101312.72;4990323;28;46336;-60
2023/06/01 01:07:41;;;;;;;;;11.00;7.25;;;;;22.66;32.42;101312.88;4981435;28;45315;-60
2023/06/01 01:10:32;;;;;;;;;8.75;6.75;;;;;22.62;32.73;101322.03;4975855;28;45445;-60
2023/06/01 01:13:06;;;;;;;;;10.25;10.25;;;;;22.58;32.76;101320.50;4952170;28;45418;-60
2023/06/01 01:15:37;;;;;;;;;6.50;6.50;;;;;22.55;32.50;101329.56;4980857;28;46432;-60
2023/06/01 01:18:07;;;;;;;;;10.50;8.25;;;;;22.53;33.03;101327.94;4981512;28;45784;-60
2023/06/01 01:20:38;;;;;;;;;7.75;6.75;;;;;22.49;32.67;101329.91;4981294;28;45409;-60
2023/06/01 01:23:32;;;;;;;;;6.75;6.75;;;;;22.48;32.99;101330.00;4981465;28;45484;-60
2023/06/01 01:26:19;;;;;;;;;8.50;6.75;;;;;22.44;32.85;101321.28;4985413;28;46099;-60
2023/06/01 01:28:59;;;;;;;;;4.75;4.50;;;;;22.41;33.31;101324.09;4981110;28;45421;-60
2023/06/01 01:31:26;;;;;;;;;9.75;9.75;;;;;22.39;33.19;101326.88;4981151;28;45365;-60
2023/06/01 01:33:55;;;;;;;;;11.50;9.50;;;;;22.35;33.26;101319.94;4980957;28;45167;-60
2023/06/01 01:36:21;;;;;;;;;8.25;8.25;;;;;22.34;33.49;101322.66;4983528;28;46324;-60
2023/06/01 01:38:46;;;;;;;;;10.00;8.00;;;;;;;;4981229;28;45381;-59
2023/06/01 01:41:12;;;;;;;;;10.50;7.75;;;;;22.26;33.42;101320.41;4981027;28;45418;-59
2023/06/01 01:43:39;;;;;;;;;6.50;6.50;;;;;22.23;33.48;101323.25;4981312;28;45254;-59
2023/06/01 01:46:23;;;;;;;;;11.25;9.50;;;;;22.20;33.82;101323.41;4979458;28;45316;-59
2023/06/01 01:48:48;;;;;;;;;12.25;9.75;;;;;22.16;33.60;101319.19;4981062;28;45411;-59
2023/06/01 01:51:22;;;;;;;;;10.75;9.75;;;;;22.12;33.79;101314.94;4980918;28;45484;-59
2023/06/01 01:53:50;;;;;;;;;9.50;9.00;;;;;22.11;33.61;101318.56;4981094;28;45305;-59
2023/06/01 01:56:17;;;;;;;;;7.50;7.50;;;;;22.08;34.08;101311.56;4967553;28;45248;-59
2023/06/01 01:58:44;;;;;;;;;11.50;10.00;;;;;22.02;34.10;101309.22;4980792;28;45363;-59
2023/06/01 02:01:10;;;;;;;;;10.75;10.50;;;;;22.01;34.18;101327.09;4980567;28;45370;-59
2023/06/01 02:03:35;;;;;;;;;14.50;11.00;;;;;21.96;34.43;101321.13;4989713;28;45589;-59
2023/06/01 02:06:00;;;;;;;;;11.00;10.25;;;;;21.92;34.29;101317.75;4982063;28;48648;-59
2023/06/01 02:08:26;;;;;;;;;11.00;10.00;;;;;21.88;34.08;101313.47;4979747;28;49640;-59
2023/06/01 02:10:51;;;;;;;;;10.00;10.00;;;;;21.87;34.17;101316.25;4981368;28;45404;-60
2023/06/01 02:13:16;;;;;;;;;11.00;9.50;;;;;21.84;34.25;101324.44;4980584;28;48174;-59
2023/06/01 02:15:42;;;;;;;;;17.00;13.50;;;;;21.81;34.39;101317.44;4966679;28;45350;-59
2023/06/01 02:18:07;;;;;;;;;15.25;12.75;;;;;21.81;34.71;101313.91;4979747;28;49036;-59
2023/06/01 02:20:32;;;;;;;;;13.50;10.25;;;;;21.78;34.46;101319.41;4980009;28;45328;-59
2023/06/01 02:22:58;;;;;;;;;13.25;12.00;;;;;21.73;34.79;101301.78;4980695;28;45497;-59
2023/06/01 02:25:23;;;;;;;;;9.25;9.25;;;;;21.75;34.70;101312.44;4979914;28;53388;-59
2023/06/01 02:27:49;;;;;;;;;14.50;12.00;;;;;21.70;34.96;101301.09;4980331;28;45327;-59
2023/06/01 02:30:14;;;;;;;;;15.25;12.00;;;;;21.68;35.12;101306.50;4980334;28;45310;-59
2023/06/01 02:32:40;;;;;;;;;12.25;12.25;;;;;21.65;35.46;101306.69;4980374;28;45459;-59
2023/06/01 02:35:06;;;;;;;;;13.75;12.25;;;;;21.62;35.08;101309.50;4980221;28;45492;-59
2023/06/01 02:37:32;;;;;;;;;14.75;13.50;;;;;21.58;35.22;101311.50;4971144;28;45253;-59
2023/06/01 02:39:57;;;;;;;;;15.50;13.25;;;;;21.57;35.07;101316.91;4977985;28;45534;-59
2023/06/01 02:42:23;;;;;;;;;14.50;14.50;;;;;21.54;35.50;101317.03;4978496;28;45465;-59
2023/06/01 02:44:48;;;;;;;;;12.25;11.50;;;;;21.53;35.11;101316.16;4975491;28;46389;-59
2023/06/01 02:47:13;;;;;;;;;15.50;15.00;;;;;21.52;35.17;101313.56;4971064;28;49734;-59
2023/06/01 02:49:38;;;;;;;;;15.25;13.75;;;;;21.48;35.80;101312.00;4980017;28;45318;-59
2023/06/01 02:52:05;;;;;;;;;14.75;11.75;;;;;21.49;35.75;101313.72;4980437;28;45363;-59
2023/06/01 02:54:30;;;;;;;;;16.00;12.25;;;;;21.45;35.37;101301.47;4979790;28;46851;-59
2023/06/01 02:56:55;;;;;;;;;13.75;12.75;;;;;21.46;36.05;101316.53;4979796;28;45319;-59
2023/06/01 02:59:21;;;;;;;;;20.00;16.75;;;;;21.43;35.49;101304.19;4980039;28;45352;-59
2023/06/01 03:01:46;;;;;;;;;20.50;18.50;;;;;21.39;35.97;101307.97;4979875;28;45250;-59
2023/06/01 03:04:12;;;;;;;;;18.50;16.25;;;;;21.37;36.27;101310.75;4990628;28;45393;-59
2023/06/01 03:06:39;;;;;;;;;20.25;17.25;;;;;21.34;35.91;101299.34;4979786;28;45226;-59
2023/06/01 03:09:05;;;;;;;;;19.00;17.00;;;;;21.33;35.85;101303.81;4979876;28;45242;-59
2023/06/01 03:11:30;;;;;;;;;19.25;18.75;;;;;21.30;36.13;101303.97;4980397;28;45558;-59
2023/06/01 03:13:56;;;;;;;;;11.75;11.75;;;;;21.25;36.22;101300.66;4979799;28;46223;-59
2023/06/01 03:16:22;;;;;;;;;17.50;15.50;;;;;21.25;36.54;101306.00;4979557;28;45448;-59
2023/06/01 03:18:48;;;;;;;;;18.75;15.00;;;;;21.23;36.12;101303.44;4979858;28;45585;-59
2023/06/01 03:21:13;;;;;;;;;20.00;17.75;;;;;21.21;36.12;101310.63;4979708;28;45488;-59
2023/06/01 03:23:43;;;;;;;;;19.75;18.25;;;;;21.19;36.70;101303.66;4977924;28;47364;-59
2023/06/01 03:26:09;;;;;;;;;18.50;18.50;;;;;21.09;36.72;101301.44;4979626;28;45421;-59
2023/06/01 03:28:35;;;;;;;;;23.00;18.50;;;;;21.11;36.65;101304.03;4981168;28;45401;-63
2023/06/01 03:31:01;;;;;;;;;21.50;20.25;;;;;21.11;36.83;101312.91;4981364;28;45484;-59
2023/06/01 03:33:26;;;;;;;;;19.00;15.75;;;;;21.09;36.28;101306.78;4977314;28;48316;-59
2023/06/01 03:35:52;;;;;;;;;22.50;18.50;;;;;21.08;36.65;101306.84;4974277;28;45241;-59
2023/06/01 03:38:17;;;;;;;;;22.75;19.50;;;;;21.05;36.65;101321.22;4984780;28;45328;-59
2023/06/01 03:40:42;;;;;;;;;22.25;20.00;;;;;21.02;36.99;101312.47;4983301;28;45305;-59
2023/06/01 03:43:07;;;;;;;;;25.25;22.25;;;;;20.99;36.59;101316.16;4982660;28;52472;-59
2023/06/01 03:45:33;;;;;;;;;20.75;17.50;;;;;20.97;37.23;101317.19;4982358;28;45320;-59
2023/06/01 03:47:58;;;;;;;;;21.25;18.50;;;;;20.94;36.87;101318.22;4982992;28;45468;-59
2023/06/01 03:50:23;;;;;;;;;23.75;23.25;;;;;20.92;37.43;101317.44;4983227;28;45409;-59
2023/06/01 03:52:49;;;;;;;;;24.25;22.25;;;;;20.90;36.98;101308.63;4982745;28;46135;-59
2023/06/01 03:55:15;;;;;;;;;29.75;23.25;;;;;20.86;37.23;101309.72;4982878;28;45365;-59
2023/06/01 03:57:40;;;;;;;;;25.75;21.75;;;;;20.85;37.36;101316.00;4983034;28;45385;-59
2023/06/01 04:00:17;;;;;;;;;22.25;19.25;;;;;20.81;37.50;101320.63;4982656;28;45531;-59
2023/06/01 04:02:45;;;;;;;;;22.25;22.25;;;;;20.78;37.60;101312.75;4981819;28;45318;-59
2023/06/01 04:05:16;;;;;;;;;24.00;20.50;;;;;20.74;37.72;101314.72;4992323;28;45401;-59
2023/06/01 04:07:42;;;;;;;;;24.75;20.50;;;;;20.71;37.52;101317.50;4982750;28;45334;-59
2023/06/01 04:10:07;;;;;;;;;20.50;19.75;;;;;20.70;37.39;101328.25;4986104;28;45661;-60
2023/06/01 04:12:32;;;;;;;;;22.25;20.25;;;;;20.67;37.45;101315.91;4984636;28;46090;-59
2023/06/01 04:14:58;;;;;;;;;27.50;24.25;;;;;20.63;37.47;101325.84;4980977;28;45996;-59
2023/06/01 04:17:23;;;;;;;;;25.25;21.75;;;;;20.61;38.00;101327.72;4982517;28;45248;-59
2023/06/01 04:19:48;;;;;;;;;27.50;24.50;;;;;20.58;38.10;101322.53;4982735;28;46626;-59
2023/06/01 04:22:14;;;;;;;;;27.50;24.00;;;;;20.54;37.43;101325.41;4982183;28;51220;-59
2023/06/01 04:24:39;;;;;;;;;23.00;22.50;;;;;20.54;37.71;101328.09;4971214;28;45231;-59
2023/06/01 04:27:07;;;;;;;;;31.25;28.75;;;;;20.51;38.26;101329.09;4980861;28;45371;-59
2023/06/01 04:29:33;;;;;;;;;27.75;22.50;;;;;20.46;38.33;101329.34;4982323;28;45381;-59
2023/06/01 04:31:59;;;;;;;;;26.00;23.75;;;;;20.45;38.01;101332.94;4981987;28;46298;-59
2023/06/01 04:34:24;;;;;;;;;25.75;23.00;;;;;20.45;38.48;101337.38;4982307;28;45324;-59
2023/06/01 04:36:51;;;;;;;;;31.50;29.75;;;;;20.42;38.02;101335.72;4983715;28;50648;-59
2023/06/01 04:39:16;;;;;;;;;26.25;23.75;;;;;20.40;38.56;101328.72;4982960;28;45596;-59
2023/06/01 04:41:42;;;;;;;;;28.75;26.25;;;;;20.36;38.22;101330.66;4982841;28;45356;-59
2023/06/01 04:44:08;;;;;;;;;33.50;28.00;;;;;20.35;38.18;101328.97;4982390;28;45364;-59
2023/06/01 04:46:34;;;;;;;;;26.75;23.25;;;;;20.34;38.84;101335.22;4981979;28;45431;-61
2023/06/01 04:49:00;;;;;;;;;25.75;25.75;;;;;20.33;38.75;101343.31;4982006;28;45246;-59
2023/06/01 04:51:28;;;;;;;;;20.75;19.75;;;;;20.29;38.87;101330.09;4981819;28;45299;-61
2023/06/01 04:53:54;;;;;;;;;27.75;22.75;;;;;20.27;38.74;101344.44;4982207;28;45248;-61
2023/06/01 04:56:24;;;;;;;;;24.00;21.00;;;;;20.30;38.39;101349.63;4981847;28;45381;-61
2023/06/01 04:58:51;;;;;;;;;22.50;21.50;;;;;20.26;38.64;101348.03;4981903;28;45321;-58
2023/06/01 05:01:17;;;;;;;;;26.00;26.00;;;;;20.27;38.96;101350.63;4981704;28;46162;-58
2023/06/01 05:03:43;;;;;;;;;29.50;27.00;;;;;20.26;38.72;101359.59;4991684;28;45449;-59
2023/06/01 05:06:11;;;;;;;;;25.50;23.00;;;;;20.24;39.17;101356.13;4983192;28;45461;-59
2023/06/01 05:08:39;;;;;;;;;21.00;18.50;;;;;20.23;39.11;101362.41;4979834;28;45545;-60
2023/06/01 05:11:06;;;;;;;;;31.00;28.00;;;;;20.23;39.29;101343.72;4986167;28;47702;-58
2023/06/01 05:13:31;;;;;;;;;27.00;25.00;;;;;20.22;39.14;101343.78;4981737;28;45391;-59
2023/06/01 05:15:57;;;;;;;;;29.50;26.00;;;;;20.19;38.89;101350.13;4981237;28;45326;-59
2023/06/01 05:18:22;;;;;;;;;30.50;27.50;;;;;20.20;39.28;101351.88;4981521;28;52879;-59
2023/06/01 05:20:47;;;;;;;;;29.75;26.75;;;;;20.19;39.38;101352.81;4981510;28;45405;-58
2023/06/01 05:23:13;;;;;;;;;31.25;26.00;;;;;20.17;39.39;101354.66;4981405;28;49607;-58
2023/06/01 05:25:38;;;;;;;;;32.75;26.00;;;;;20.18;39.07;101360.88;4981335;28;45424;-58
2023/06/01 05:28:03;;;;;;;;;26.50;26.50;;;;;20.14;39.12;101371.69;4981132;28;47657;-58
2023/06/01 05:30:29;;;;;;;;;27.25;23.00;;;;;20.16;39.72;101368.06;4981080;28;45326;-58
2023/06/01 05:32:54;;;;;;;;;33.00;29.00;;;;;20.13;39.10;101359.25;4981513;28;45322;-59
2023/06/01 05:35:20;;;;;;;;;33.25;28.50;;;;;20.15;39.50;101367.22;4981325;28;45333;-58
2023/06/01 05:37:45;;;;;;;;;30.50;26.00;;;;;20.14;39.90;101361.00;4984073;28;45258;-58
2023/06/01 05:40:11;;;;;;;;;30.75;25.75;;;;;20.16;39.53;101378.75;4995866;28;46946;-58
2023/06/01 05:42:36;;;;;;;;;28.50;28.25;;;;;20.15;39.70;101367.22;4981243;28;45258;-58
2023/06/01 05:45:02;;;;;;;;;29.75;26.00;;;;;20.16;39.81;101366.25;4981025;28;45267;-61
2023/06/01 05:47:28;;;;;;;;;29.50;24.75;;;;;20.18;39.26;101374.22;4980958;28;45548;-61
2023/06/01 05:49:53;;;;;;;;;23.75;22.50;;;;;20.17;39.37;101364.47;4975442;28;46063;-64
2023/06/01 05:52:19;;;;;;;;;32.25;29.25;;;;;20.18;40.02;101372.41;4973227;28;45206;-60
2023/06/01 05:54:44;;;;;;;;;37.25;31.25;;;;;20.20;39.48;101365.22;4971984;28;45482;-59
2023/06/01 05:57:09;;;;;;;;;25.75;24.75;;;;;20.19;39.93;101355.47;4970711;28;45439;-62
2023/06/01 05:59:34;;;;;;;;;23.00;22.50;;;;;20.21;39.55;101369.59;4970407;28;45432;-59
2023/06/01 06:02:00;;;;;;;;;27.25;24.25;;;;;20.22;39.62;101365.13;4970256;28;45486;-65
2023/06/01 06:04:25;;;;;;;;;30.50;29.00;;;;;20.24;39.67;101369.47;4970942;28;45358;-64
2023/06/01 06:06:51;;;;;;;;;30.75;28.00;;;;;20.28;39.72;101375.53;4972016;28;45384;-62
2023/06/01 06:09:17;;;;;;;;;28.50;25.25;;;;;20.29;39.57;101366.59;4971192;28;46421;-63
2023/06/01 06:11:43;;;;;;;;;27.50;25.25;;;;;20.32;40.07;101371.78;4972075;28;45502;-61
2023/06/01 06:14:11;;;;;;;;;24.75;23.75;;;;;20.34;39.89;101366.38;4968813;28;45362;-61
2023/06/01 06:16:36;;;;;;;;;35.25;27.50;;;;;20.34;40.15;101356.59;4969293;28;46643;-62
2023/06/01 06:19:02;;;;;;;;;28.75;25.50;;;;;20.37;39.67;101356.44;4972066;28;46130;-59
2023/06/01 06:21:27;;;;;;;;;27.25;25.75;;;;;20.41;40.13;101357.16;4969971;28;45429;-58
2023/06/01 06:23:58;;;;;;;;;30.00;28.25;;;;;20.43;39.78;101355.31;4968522;28;45267;-59
2023/06/01 06:26:23;;;;;;;;;21.50;21.50;;;;;20.46;39.82;101355.13;4970596;28;45420;-58
2023/06/01 06:28:49;;;;;;;;;31.00;26.75;;;;;20.47;39.74;101356.88;4971012;28;46323;-59
2023/06/01 06:31:14;;;;;;;;;26.00;24.25;;;;;20.46;39.85;101348.03;4972806;28;45475;-58
2023/06/01 06:33:40;;;;;;;;;24.50;22.50;;;;;20.50;40.32;101348.72;4979320;28;45362;-58
2023/06/01 06:36:05;;;;;;;;;25.50;22.50;;;;;20.52;40.25;101354.00;4970473;28;48854;-57
2023/06/01 06:38:30;;;;;;;;;23.25;22.25;;;;;20.55;40.34;101359.19;4985346;28;48059;-58
2023/06/01 06:40:57;;;;;;;;;27.25;23.75;;;;;20.56;40.43;101347.56;4970739;28;45454;-58
2023/06/01 06:43:22;;;;;;;;;29.75;27.25;;;;;20.57;40.60;101352.00;4971571;28;45429;-57
2023/06/01 06:45:47;;;;;;;;;29.00;26.00;;;;;20.59;39.93;101358.09;4970820;28;45408;-57
2023/06/01 06:48:13;;;;;;;;;30.25;25.50;;;;;20.58;40.04;101357.25;4968437;28;48090;-57
2023/06/01 06:50:41;;;;;;;;;37.25;30.25;;;;;20.60;40.31;101357.16;4965284;28;45485;-57
2023/06/01 06:53:06;;;;;;;;;27.75;24.50;;;;;20.63;40.65;101354.38;4970299;28;45724;-57
2023/06/01 06:55:32;;;;;;;;;25.50;23.25;;;;;20.66;40.67;101361.38;4966594;28;45658;-57
2023/06/01 06:57:57;;;;;;;;;25.75;24.75;;;;;20.67;39.98;101363.13;4968374;28;46011;-58
2023/06/01 07:00:23;;;;;;;;;28.25;23.75;;;;;20.68;40.07;101359.47;4975344;28;45341;-57
2023/06/01 07:02:48;;;;;;;;;23.75;19.75;;;;;20.70;40.14;101365.63;4983277;28;45491;-57
2023/06/01 07:05:13;;;;;;;;;25.50;22.75;;;;;20.73;40.45;101368.19;4992693;28;45300;-57
2023/06/01 07:07:40;;;;;;;;;26.00;25.25;;;;;20.74;40.16;101362.78;4983481;28;46085;-60
2023/06/01 07:10:07;;;;;;;;;26.25;22.25;;;;;20.76;40.25;101368.91;4986835;28;45266;-57
2023/06/01 07:12:33;;;;;;;;;25.25;20.50;;;;;20.72;40.59;101361.97;4984529;28;45334;-57
2023/06/01 07:14:58;;;;;;;;;25.75;21.50;;;;;20.80;40.71;101372.28;4982537;28;45484;-57
2023/06/01 07:17:24;;;;;;;;;22.50;19.75;;;;;20.83;40.42;101369.50;4983123;28;45183;-57
2023/06/01 07:19:49;;;;;;;;;22.50;19.50;;;;;20.85;40.19;101372.94;4983293;28;45262;-57
2023/06/01 07:22:16;;;;;;;;;22.00;22.00;;;;;20.89;40.51;101377.22;4975544;28;45358;-57
2023/06/01 07:24:42;;;;;;;;;26.25;23.25;;;;;20.91;40.24;101383.31;4983152;28;45439;-57
2023/06/01 07:27:07;;;;;;;;;26.25;24.50;;;;;20.93;40.53;101376.13;4982787;28;46992;-57
2023/06/01 07:29:33;;;;;;;;;23.00;22.00;;;;;20.95;40.13;101376.03;4983220;28;45278;-57
2023/06/01 07:31:59;;;;;;;;;23.75;21.25;;;;;20.98;40.78;101377.69;4982883;28;45401;-57
2023/06/01 07:34:25;;;;;;;;;24.00;21.00;;;;;20.99;40.74;101384.78;4983171;28;45253;-57
2023/06/01 07:36:50;;;;;;;;;25.00;22.25;;;;;21.04;40.11;101385.41;4985224;28;46921;-57
2023/06/01 07:39:16;;;;;;;;;22.25;20.00;;;;;21.07;40.75;101396.81;4981703;28;45319;-57
2023/06/01 07:41:44;;;;;;;;;20.50;20.50;;;;;21.11;40.12;101392.22;4982887;28;45388;-57
2023/06/01 07:44:09;;;;;;;;;20.75;18.50;;;;;21.14;40.23;101402.72;4982955;28;45330;-57
2023/06/01 07:46:35;;;;;;;;;24.00;20.75;;;;;21.12;40.72;101385.94;4982464;28;45325;-57
2023/06/01 07:49:01;;;;;;;;;26.25;23.25;;;;;21.20;40.43;101401.59;4982687;28;45226;-57
2023/06/01 07:51:28;;;;;;;;;21.50;18.50;;;;;21.23;40.47;101399.63;4976061;28;45172;-57
2023/06/01 07:53:57;;;;;;;;;22.25;19.75;;;;;21.26;40.38;101403.97;4982842;28;45334;-57
2023/06/01 07:56:26;;;;;;;;;21.00;18.75;;;;;21.31;40.18;101401.94;4982377;28;47047;-57
2023/06/01 07:58:51;;;;;;;;;20.75;19.00;;;;;21.35;40.77;101411.53;4982511;28;45453;-57
2023/06/01 08:01:17;;;;;;;;;21.00;19.25;;;;;21.37;40.09;101409.66;4982524;28;45439;-58
2023/06/01 08:03:43;;;;;;;;;21.00;17.75;;;;;21.41;40.33;101399.69;4991399;28;45458;-57
2023/06/01 08:06:09;;;;;;;;;20.75;18.25;;;;;21.45;40.50;101403.06;4983823;28;45993;-57
2023/06/01 08:08:35;;;;;;;;;17.25;17.25;;;;;21.47;40.13;101398.50;4982151;28;45340;-58
2023/06/01 08:11:00;;;;;;;;;23.00;21.25;;;;;21.52;40.29;101401.78;4988999;28;45271;-57
2023/06/01 08:13:25;;;;;;;;;17.75;17.00;;;;;21.55;40.20;101401.66;4981269;28;45458;-57
2023/06/01 08:15:52;;;;;;;;;19.00;16.00;;;;;21.58;40.34;101406.88;4980654;28;45950;-57
2023/06/01 08:18:19;;;;;;;;;18.75;15.00;;;;;21.64;40.04;101405.72;4982090;28;45365;-57
2023/06/01 08:20:45;;;;;;;;;19.75;17.25;;;;;21.68;40.47;101399.25;4977775;28;45283;-57
2023/06/01 08:23:10;;;;;;;;;20.25;17.50;;;;;21.72;40.33;101404.38;4974195;28;45461;-57
2023/06/01 08:25:36;;;;;;;;;17.50;17.50;;;;;21.76;40.09;101407.78;4982134;28;45950;-57
2023/06/01 08:28:02;;;;;;;;;19.75;18.00;;;;;21.79;40.48;101396.06;4982203;28;45226;-57
2023/06/01 08:30:27;;;;;;;;;22.50;18.50;;;;;21.84;40.61;101399.34;4982304;28;45152;-57
2023/06/01 08:32:52;;;;;;;;;17.50;16.00;;;;;21.87;40.44;101405.41;4982435;28;45322;-57
2023/06/01 08:35:19;;;;;;;;;17.00;16.00;;;;;21.90;40.23;101399.88;4982137;28;45944;-57
2023/06/01 08:37:46;;;;;;;;;16.00;15.50;;;;;21.94;40.67;101397.03;4984797;28;45316;-57
2023/06/01 08:40:12;;;;;;;;;17.00;14.50;;;;;21.99;40.09;101387.00;4982174;28;45326;-57
2023/06/01 08:42:37;;;;;;;;;13.75;13.75;;;;;22.04;40.12;101396.50;4982229;28;45480;-58
2023/06/01 08:45:05;;;;;;;;;19.50;15.25;;;;;22.09;40.29;101401.63;4981796;28;45343;-58
2023/06/01 08:47:32;;;;;;;;;16.75;15.50;;;;;22.13;40.05;101400.50;4981617;28;45230;-57
2023/06/01 08:50:00;;;;;;;;;17.75;16.75;;;;;22.16;40.03;101396.78;4981985;28;45333;-57
2023/06/01 08:52:28;;;;;;;;;14.50;14.50;;;;;22.22;40.55;101400.00;4982006;28;45500;-57
2023/06/01 08:54:54;;;;;;;;;20.75;18.25;;;;;22.27;40.54;101397.09;4981837;28;47065;-57
2023/06/01 08:57:20;;;;;;;;;19.25;17.50;;;;;22.32;40.18;101394.19;4981795;28;45303;-57
2023/06/01 08:59:46;;;;;;;;;17.25;13.75;;;;;22.36;40.26;101390.38;4982000;28;45231;-57
2023/06/01 09:02:11;;;;;;;;;19.75;14.50;;;;;22.40;40.34;101389.28;4970233;28;46590;-57
2023/06/01 09:04:42;;;;;;;;;17.00;16.25;;;;;22.45;40.18;101395.28;5008916;28;47299;-57
2023/06/01 09:07:07;;;;;;;;;18.50;15.50;;;;;22.49;40.34;101391.50;4982152;28;45436;-57
2023/06/01 09:09:33;;;;;;;;;20.75;17.75;;;;;22.54;40.55;101381.41;4981870;28;45457;-57
2023/06/01 09:12:20;;;;;;;;;15.25;14.00;;;;;22.60;40.62;101387.38;4987517;28;45171;-57
2023/06/01 09:14:45;;;;;;;;;18.00;15.75;;;;;22.64;40.15;101379.09;4971128;28;46215;-57
2023/06/01 09:17:21;;;;;;;;;17.50;14.50;;;;;22.70;40.11;101389.47;4981426;28;45179;-57
2023/06/01 09:19:47;;;;;;;;;17.50;15.25;;;;;22.76;40.23;101382.03;4980275;28;45600;-58
2023/06/01 09:22:12;;;;;;;;;18.50;13.75;;;;;22.78;40.06;101377.44;4981549;28;45309;-57
2023/06/01 09:24:40;;;;;;;;;15.50;12.50;;;;;22.85;40.14;101382.34;4981623;28;45830;-57
2023/06/01 09:27:06;;;;;;;;;11.25;11.00;;;;;22.90;40.31;101371.41;4980956;28;45428;-57
2023/06/01 09:29:32;;;;;;;;;12.25;12.00;;;;;22.97;40.24;101375.47;4981450;28;45429;-57
2023/06/01 09:32:00;;;;;;;;;15.50;14.00;;;;;23.01;40.02;101368.97;4981049;28;45318;-57
2023/06/01 09:34:25;;;;;;;;;17.25;14.50;;;;;23.10;40.55;101370.25;4980910;28;46437;-57
2023/06/01 09:36:53;;;;;;;;;17.75;14.75;;;;;23.17;39.91;101378.88;4983127;28;45511;-58
2023/06/01 09:39:20;;;;;;;;;14.50;14.50;;;;;23.23;40.13;101364.22;4981557;28;45452;-57
2023/06/01 09:41:49;;;;;;;;;14.50;14.50;;;;;23.29;39.92;101364.72;4981027;28;45464;-57
2023/06/01 09:44:24;;;;;;;;;14.50;14.50;;;;;23.35;39.94;101360.84;4981182;28;46619;-57
2023/06/01 09:46:56;;;;;;;;;17.75;16.25;;;;;23.42;39.99;101353.28;4980966;28;45338;-57
2023/06/01 09:49:24;;;;;;;;;16.25;14.75;;;;;23.50;39.94;101359.94;4981159;28;45248;-57
2023/06/01 09:51:51;;;;;;;;;14.25;14.25;;;;;23.59;40.24;101363.88;4981174;28;45235;-57
2023/06/01 09:54:28;;;;;;;;;18.50;15.75;;;;;23.66;40.06;101354.53;4978414;28;47186;-57
2023/06/01 09:56:54;;;;;;;;;16.75;16.75;;;;;23.75;39.97;101354.91;4971795;28;45476;-57
2023/06/01 09:59:21;;;;;;;;;14.75;13.50;;;;;23.83;39.88;101358.88;4980959;28;45325;-58
2023/06/01 10:01:53;;;;;;;;;13.75;13.75;;;;;23.91;40.23;101361.13;4980881;28;45316;-57
2023/06/01 10:04:25;;;;;;;;;13.75;13.25;;;;;24.02;39.58;101361.34;4992526;28;46465;-57
2023/06/01 10:06:52;;;;;;;;;14.75;13.25;;;;;24.12;39.69;101350.88;4980813;28;45584;-57
2023/06/01 10:09:19;;;;;;;;;14.25;13.50;;;;;24.25;40.06;101355.50;4980884;28;45302;-57
2023/06/01 10:11:46;;;;;;;;;17.75;14.75;;;;;24.37;39.92;101349.34;4970859;28;45518;-58
2023/06/01 10:14:12;;;;;;;;;11.75;11.75;;;;;24.49;39.85;101350.44;4978364;28;45317;-57
2023/06/01 10:16:44;;;;;;;;;16.50;16.25;;;;;24.65;40.34;101351.19;4995511;28;45295;-57
2023/06/01 10:19:12;;;;;;;;;13.50;13.00;;;;;24.80;39.85;101349.34;4980692;28;45521;-58
2023/06/01 10:21:39;;;;;;;;;17.00;15.50;;;;;24.99;39.62;101349.00;4980752;28;45543;-58
2023/06/01 10:24:06;;;;;;;;;12.00;12.00;;;;;25.16;40.10;101336.28;4980543;28;46050;-57
2023/06/01 10:26:53;;;;;;;;;17.00;16.50;;;;;25.37;39.75;101338.50;4980243;28;45227;-58
2023/06/01 10:29:19;;;;;;;;;14.50;14.50;;;;;25.63;39.49;101334.03;4970146;28;45310;-58
2023/06/01 10:31:45;;;;;;;;;12.75;12.25;;;;;25.87;40.15;101339.53;4979871;28;45570;-58
2023/06/01 10:34:12;;;;;;;;;12.50;11.75;;;;;26.24;39.81;101339.69;4980408;28;46274;-58
2023/06/01 10:36:52;;;;;;;;;11.50;10.50;;;;;26.71;40.10;101336.38;4997865;28;45406;-58
2023/06/01 10:39:32;;;;;;;;;14.00;12.50;;;;;27.23;40.27;101337.03;4980130;28;45441;-58
2023/06/01 10:42:17;;;;;;;;;14.75;11.25;;;;;27.85;40.64;101335.91;4967894;28;45314;-58
2023/06/01 10:44:42;;;;;;;;;12.00;11.25;;;;;28.43;40.47;101328.69;4979674;28;45305;-59
2023/06/01 10:47:11;;;;;;;;;12.75;11.75;;;;;29.04;40.13;101336.34;4980402;28;45421;-58
2023/06/01 10:49:48;;;;;;;;;11.75;11.75;;;;;29.70;40.36;101338.06;4980368;28;45362;-58
2023/06/01 10:52:34;;;;;;;;;12.50;12.50;;;;;30.44;40.11;101331.59;4995354;28;46276;-58
2023/06/01 10:55:13;;;;;;;;;13.50;10.00;;;;;31.14;39.76;101338.06;4968343;28;46251;-58
2023/06/01 10:57:40;;;;;;;;;15.75;15.00;;;;;31.76;38.91;101335.88;4980155;28;45236;-59
2023/06/01 11:00:09;;;;;;;;;14.25;11.75;;;;;32.44;39.12;101334.81;4980232;28;45175;-58
2023/06/01 11:02:34;;;;;;;;;9.75;9.75;;;;;33.04;38.95;101334.31;4980808;28;44891;-58
2023/06/01 11:05:35;;;;;;;;;13.00;13.00;;;;;33.72;38.54;101328.41;4991176;28;45434;-58
2023/06/01 11:08:00;;;;;;;;;11.00;10.25;;;;;34.31;38.12;101332.16;4967537;28;45360;-58
2023/06/01 11:10:50;;;;;;;;;13.25;12.75;;;;;34.94;38.11;101319.06;4980691;28;45287;-58
2023/06/01 11:13:18;;;;;;;;;11.50;11.50;;;;;35.50;37.78;101325.78;4980289;28;45479;-59